createdAt,value
2023-05-17T00:04:42.849Z,99678.34
2023-05-17T00:09:46.514Z,99680.94
2023-05-17T00:14:50.172Z,99675.75
2023-05-17T00:19:55.221Z,99683.53
2023-05-17T00:24:58.919Z,99689.59
2023-05-17T00:30:02.405Z,99689.59
2023-05-17T00:35:09.929Z,99691.25
2023-05-17T00:40:15.164Z,99701.66
2023-05-17T00:45:18.780Z,99693.84
2023-05-17T00:50:24.166Z,99707.69
2023-05-17T00:55:28.475Z,99707.66
2023-05-17T01:00:33.447Z,99712.84
2023-05-17T01:05:38.159Z,99718.03
2023-05-17T01:10:51.901Z,99724.03
2023-05-17T01:16:03.785Z,99724.03
2023-05-17T01:21:18.456Z,99723.13
2023-05-17T01:26:35.209Z,99732.66
2023-05-17T01:31:40.270Z,99724.84
2023-05-17T01:36:43.720Z,99730.03
2023-05-17T01:41:56.690Z,99731.81
2023-05-17T01:47:07.376Z,99723.94
2023-05-17T01:52:17.148Z,99730.03
2023-05-17T01:57:26.855Z,99735.25
2023-05-17T02:02:30.685Z,99741.31
2023-05-17T02:07:34.192Z,99736.13
2023-05-17T02:12:39.211Z,99743.09
2023-05-17T02:17:43.015Z,99745.69
2023-05-17T02:22:46.724Z,99743.16
2023-05-17T02:27:51.846Z,99744.03
2023-05-17T02:32:57.125Z,99746.66
2023-05-17T02:38:00.903Z,99745.84
2023-05-17T02:43:05.821Z,99748.53
2023-05-17T02:48:09.121Z,99752.06
2023-05-17T02:53:12.994Z,99743.34
2023-05-17T02:58:18.124Z,99754.66
2023-05-17T03:03:21.904Z,99750.34
2023-05-17T03:08:27.002Z,99763.34
2023-05-17T03:13:32.005Z,99766.66
2023-05-17T03:18:36.092Z,99762.19
2023-05-17T03:23:39.698Z,99767.66
2023-05-17T03:28:44.637Z,99765.28
2023-05-17T03:33:48.377Z,99771.44
2023-05-17T03:38:51.970Z,99746.22
2023-05-17T03:43:56.922Z,99794.53
2023-05-17T03:49:00.605Z,99788.38
2023-05-17T03:54:04.210Z,99783.00
2023-05-17T03:59:09.322Z,99795.25
2023-05-17T04:04:13.029Z,99795.63
2023-05-17T04:09:16.741Z,99793.88
2023-05-17T04:14:22.572Z,99799.19
2023-05-17T04:19:26.196Z,99800.44
2023-05-17T04:24:29.952Z,99809.38
2023-05-17T04:29:35.004Z,99811.31
2023-05-17T04:34:38.495Z,99808.38
2023-05-17T04:39:41.690Z,99812.13
2023-05-17T04:44:47.014Z,99811.75
2023-05-17T04:49:51.669Z,99801.75
2023-05-17T04:54:55.304Z,99796.03
2023-05-17T05:00:00.178Z,99798.97
2023-05-17T05:05:05.081Z,99799.84
2023-05-17T05:10:09.864Z,99804.81
2023-05-17T05:15:15.347Z,99807.28
2023-05-17T05:20:19.042Z,99811.59
2023-05-17T05:25:22.784Z,99801.28
2023-05-17T05:30:27.740Z,99809.28
2023-05-17T05:35:31.563Z,99814.25
2023-05-17T05:40:35.270Z,99811.66
2023-05-17T05:45:45.917Z,99816.75
2023-05-17T05:50:49.518Z,99823.50
2023-05-17T05:55:53.139Z,99814.06
2023-05-17T06:00:58.385Z,99811.09
2023-05-17T06:06:02.078Z,99811.78
2023-05-17T06:11:05.815Z,99820.13
2023-05-17T06:16:10.785Z,99807.03
2023-05-17T06:21:16.382Z,99810.13
2023-05-17T06:26:19.959Z,99818.06
2023-05-17T06:31:24.956Z,99814.03
2023-05-17T06:36:28.528Z,99804.44
2023-05-17T06:41:32.072Z,99813.28
2023-05-17T06:46:37.226Z,99807.88
2023-05-17T06:51:40.832Z,99798.44
2023-05-17T06:56:44.565Z,99798.78
2023-05-17T07:01:49.432Z,99800.13
2023-05-17T07:06:52.922Z,99818.09
2023-05-17T07:11:56.510Z,99796.44
2023-05-17T07:17:01.697Z,99817.38
2023-05-17T07:22:05.639Z,99793.38
2023-05-17T07:27:09.270Z,99816.63
2023-05-17T07:32:14.340Z,99818.44
2023-05-17T07:37:17.844Z,99814.22
2023-05-17T07:42:21.337Z,99799.69
2023-05-17T07:47:26.290Z,99803.25
2023-05-17T07:52:29.934Z,99805.78
2023-05-17T07:57:33.643Z,99793.28
2023-05-17T08:02:38.700Z,99791.50
2023-05-17T08:07:42.321Z,99776.56
2023-05-17T08:12:46.291Z,99785.69
2023-05-17T08:17:51.620Z,99786.66
2023-05-17T08:22:55.335Z,99785.84
2023-05-17T08:27:58.920Z,99776.88
2023-05-17T08:33:04.086Z,99767.34
2023-05-17T08:38:08.645Z,99774.00
2023-05-17T08:43:13.755Z,99754.34
2023-05-17T08:48:23.102Z,99762.41
2023-05-17T08:53:27.288Z,99759.34
2023-05-17T08:58:51.714Z,99767.28
2023-05-17T09:04:01.805Z,99759.66
2023-05-17T09:09:08.080Z,99757.53
2023-05-17T09:14:11.656Z,99765.63
2023-05-17T09:19:18.641Z,99747.44
2023-05-17T09:24:29.529Z,99753.09
2023-05-17T09:29:33.999Z,99753.13
2023-05-17T09:34:41.648Z,99742.97
2023-05-17T09:39:47.054Z,99711.78
2023-05-17T09:44:53.378Z,99737.81
2023-05-17T09:50:00.915Z,99752.69
2023-05-17T09:55:04.645Z,99736.16
2023-05-17T10:00:12.233Z,99736.00
2023-05-17T10:05:19.144Z,99742.38
2023-05-17T10:10:23.486Z,99734.38
2023-05-17T10:15:29.066Z,99730.94
2023-05-17T10:20:34.650Z,99724.59
2023-05-17T10:25:39.474Z,99718.81
2023-05-17T10:30:43.961Z,99723.66
2023-05-17T10:35:50.887Z,99715.00
2023-05-17T10:40:55.309Z,99703.56
2023-05-17T10:46:00.350Z,99714.13
2023-05-17T10:51:09.988Z,99705.28
2023-05-17T10:56:13.706Z,99699.44
2023-05-17T11:01:45.694Z,99703.25
2023-05-17T11:06:50.964Z,99707.47
2023-05-17T11:12:09.165Z,99685.88
2023-05-17T11:17:16.503Z,99683.25
2023-05-17T11:22:24.534Z,99685.41
2023-05-17T11:27:29.039Z,99688.41
2023-05-17T11:32:33.940Z,99683.16
2023-05-17T11:37:38.853Z,99671.47
2023-05-17T11:42:42.673Z,99675.88
2023-05-17T11:47:49.856Z,99667.34
2023-05-17T11:52:58.418Z,99655.25
2023-05-17T11:58:04.362Z,99641.84
2023-05-17T12:03:21.810Z,99644.16
2023-05-17T12:08:26.838Z,99641.50
2023-05-17T12:13:31.136Z,99637.59
2023-05-17T12:18:38.810Z,99623.69
2023-05-17T12:23:45.113Z,99625.94
2023-05-17T12:28:57.636Z,99613.16
2023-05-17T12:34:02.772Z,99614.84
2023-05-17T12:39:10.105Z,99604.66
2023-05-17T12:44:16.695Z,99614.41
2023-05-17T12:49:22.547Z,99611.53
2023-05-17T12:54:31.621Z,99586.88
2023-05-17T12:59:36.638Z,99583.28
2023-05-17T13:04:40.323Z,99598.38
2023-05-17T13:09:49.267Z,99585.44
2023-05-17T13:14:54.942Z,99597.56
2023-05-17T13:19:58.766Z,99602.88
2023-05-17T13:25:04.472Z,99591.13
2023-05-17T13:30:10.793Z,99588.66
2023-05-17T13:35:14.415Z,99589.59
2023-05-17T13:40:19.454Z,99570.91
2023-05-17T13:45:23.458Z,99581.94
2023-05-17T13:50:27.078Z,99575.13
2023-05-17T13:55:32.165Z,99568.28
2023-05-17T14:00:35.807Z,99564.34
2023-05-17T14:05:39.523Z,99557.13
2023-05-17T14:10:44.536Z,99549.44
2023-05-17T14:15:48.096Z,99558.41
2023-05-17T14:20:53.309Z,99554.44
2023-05-17T14:25:58.777Z,99556.09
2023-05-17T14:31:02.316Z,99543.38
2023-05-17T14:36:06.336Z,99555.56
2023-05-17T14:41:10.979Z,99548.31
2023-05-17T14:46:14.831Z,99551.25
2023-05-17T14:51:18.064Z,99543.63
2023-05-17T14:56:22.914Z,99539.34
2023-05-17T15:01:26.511Z,99538.31
2023-05-17T15:06:30.697Z,99535.41
2023-05-17T15:11:35.628Z,99545.31
2023-05-17T15:16:39.498Z,99550.38
2023-05-17T15:21:42.835Z,99549.66
2023-05-17T15:26:47.990Z,99532.13
2023-05-17T15:31:51.827Z,99543.25
2023-05-17T15:36:57.022Z,99543.16
2023-05-17T15:42:02.375Z,99553.16
2023-05-17T15:47:06.279Z,99538.59
2023-05-17T15:52:10.319Z,99543.97
2023-05-17T15:57:15.275Z,99545.47
2023-05-17T16:02:19.768Z,99549.34
2023-05-17T16:07:25.020Z,99533.94
2023-05-17T16:12:30.009Z,99537.84
2023-05-17T16:17:33.906Z,99542.97
2023-05-17T16:22:37.797Z,99544.69
2023-05-17T16:27:43.434Z,99534.84
2023-05-17T16:32:48.171Z,99539.06
2023-05-17T16:37:52.389Z,99544.88
2023-05-17T16:42:57.125Z,99544.00
2023-05-17T16:48:00.341Z,99548.81
2023-05-17T16:53:03.919Z,99542.59
2023-05-17T16:58:09.283Z,99547.81
2023-05-17T17:03:13.052Z,99549.41
2023-05-17T17:08:16.748Z,99545.88
2023-05-17T17:13:21.962Z,99553.81
2023-05-17T17:18:25.880Z,99553.78
2023-05-17T17:23:29.559Z,99553.13
2023-05-17T17:28:34.624Z,99559.25
2023-05-17T17:33:38.334Z,99564.06
2023-05-17T17:38:42.221Z,99562.38
2023-05-17T17:43:49.487Z,99571.13
2023-05-17T17:48:54.339Z,99573.88
2023-05-17T17:53:59.950Z,99577.19
2023-05-17T17:59:05.027Z,99575.03
2023-05-17T18:04:09.715Z,99572.25
2023-05-17T18:09:13.456Z,99575.41
2023-05-17T18:14:18.457Z,99580.38
2023-05-17T18:19:22.092Z,99570.75
2023-05-17T18:24:25.697Z,99580.75
2023-05-17T18:29:30.615Z,99583.91
2023-05-17T18:34:34.172Z,99581.75
2023-05-17T18:39:37.823Z,99576.84
2023-05-17T18:44:42.787Z,99575.53
2023-05-17T18:49:47.205Z,99576.00
2023-05-17T18:54:50.758Z,99577.28
2023-05-17T18:59:55.754Z,99574.97
2023-05-17T19:04:59.276Z,99578.88
2023-05-17T19:10:04.527Z,99574.84
2023-05-17T19:15:10.832Z,99578.59
2023-05-17T19:20:14.846Z,99581.53
2023-05-17T19:25:20.312Z,99591.38
2023-05-17T19:30:26.099Z,99584.59
2023-05-17T19:35:29.658Z,99591.81
2023-05-17T19:40:33.203Z,99599.06
2023-05-17T19:45:38.171Z,99601.81
2023-05-17T19:50:41.730Z,99604.72
2023-05-17T19:55:45.474Z,99605.78
2023-05-17T20:00:50.658Z,99608.66
2023-05-17T20:05:55.090Z,99603.63
2023-05-17T20:10:58.708Z,99603.09
2023-05-17T20:16:03.610Z,99607.69
2023-05-17T20:21:07.905Z,99602.63
2023-05-17T20:26:16.602Z,99595.91
2023-05-17T20:31:21.614Z,99599.53
2023-05-17T20:36:25.972Z,99603.13
2023-05-17T20:41:29.675Z,99602.34
2023-05-17T20:46:35.603Z,99609.38
2023-05-17T20:51:39.501Z,99599.13
2023-05-17T20:56:43.030Z,99602.75
2023-05-17T21:01:47.972Z,99580.38
2023-05-17T21:06:52.403Z,99596.81
2023-05-17T21:11:56.107Z,99596.16
2023-05-17T21:17:02.437Z,99602.31
2023-05-17T21:22:06.988Z,99608.56
2023-05-17T21:27:10.553Z,99606.09
2023-05-17T21:32:16.883Z,99611.34
2023-05-17T21:37:20.732Z,99605.41
2023-05-17T21:42:24.459Z,99602.00
2023-05-17T21:47:29.593Z,99602.03
2023-05-17T21:52:33.221Z,99602.13
2023-05-17T21:57:37.269Z,99601.34
2023-05-17T22:02:42.964Z,99602.28
2023-05-17T22:07:46.619Z,99602.38
2023-05-17T22:12:50.435Z,99609.41
2023-05-17T22:17:55.709Z,99607.75
2023-05-17T22:22:59.439Z,99606.09
2023-05-17T22:28:02.949Z,99606.16
2023-05-17T22:33:08.021Z,99598.41
2023-05-17T22:38:11.702Z,99602.75
2023-05-17T22:43:15.400Z,99598.41
2023-05-17T22:48:21.206Z,99595.00
2023-05-17T22:53:24.748Z,99597.69
2023-05-17T22:58:28.330Z,99599.47
2023-05-17T23:03:33.264Z,99598.72
2023-05-17T23:08:36.793Z,99597.91
2023-05-17T23:13:42.026Z,99588.38
2023-05-17T23:18:47.605Z,99592.72
2023-05-17T23:23:53.688Z,99600.56
2023-05-17T23:28:57.228Z,99609.28
2023-05-17T23:34:02.132Z,99600.66
2023-05-17T23:39:06.556Z,99601.63
2023-05-17T23:44:10.096Z,99598.16
2023-05-17T23:49:15.033Z,99606.91
2023-05-17T23:54:18.538Z,99612.97
2023-05-17T23:59:24.498Z,99617.34
